sensor_id;sensor_type;location;lat;lon;timestamp;temperature;humidity
23683;DHT22;24897;53.514;10.482;2022-08-19T00:01:29;19.60;99.90
23683;DHT22;24897;53.514;10.482;2022-08-19T00:04:14;20.90;99.90
23683;DHT22;24897;53.514;10.482;2022-08-19T00:07:00;20.00;99.90
23683;DHT22;24897;53.514;10.482;2022-08-19T00:09:44;19.90;99.90
23683;DHT22;24897;53.514;10.482;2022-08-19T00:12:29;20.50;99.90
23683;DHT22;24897;53.514;10.482;2022-08-19T00:15:15;20.10;99.90
23683;DHT22;24897;53.514;10.482;2022-08-19T00:17:59;20.50;99.90
23683;DHT22;24897;53.514;10.482;2022-08-19T00:20:43;20.50;99.90
23683;DHT22;24897;53.514;10.482;2022-08-19T00:23:27;20.00;99.90
23683;DHT22;24897;53.514;10.482;2022-08-19T00:26:12;20.30;99.90
23683;DHT22;24897;53.514;10.482;2022-08-19T00:28:56;20.20;99.90
23683;DHT22;24897;53.514;10.482;2022-08-19T00:31:41;20.10;99.90
23683;DHT22;24897;53.514;10.482;2022-08-19T00:34:26;19.20;99.90
23683;DHT22;24897;53.514;10.482;2022-08-19T00:39:57;20.00;99.90
23683;DHT22;24897;53.514;10.482;2022-08-19T00:42:41;20.00;99.90
23683;DHT22;24897;53.514;10.482;2022-08-19T00:45:27;20.10;99.90
23683;DHT22;24897;53.514;10.482;2022-08-19T00:48:12;20.10;99.90
23683;DHT22;24897;53.514;10.482;2022-08-19T00:50:56;19.70;99.90
23683;DHT22;24897;53.514;10.482;2022-08-19T00:53:40;19.90;99.90
23683;DHT22;24897;53.514;10.482;2022-08-19T00:56:25;20.30;99.90
23683;DHT22;24897;53.514;10.482;2022-08-19T00:59:10;20.50;99.90
23683;DHT22;24897;53.514;10.482;2022-08-19T01:01:54;19.20;99.90
23683;DHT22;24897;53.514;10.482;2022-08-19T01:04:38;20.20;99.90
23683;DHT22;24897;53.514;10.482;2022-08-19T01:07:23;19.50;99.90
23683;DHT22;24897;53.514;10.482;2022-08-19T01:10:11;19.30;99.90
23683;DHT22;24897;53.514;10.482;2022-08-19T01:12:56;20.10;99.90
23683;DHT22;24897;53.514;10.482;2022-08-19T01:15:48;19.90;99.90
23683;DHT22;24897;53.514;10.482;2022-08-19T01:18:38;18.30;99.90
23683;DHT22;24897;53.514;10.482;2022-08-19T01:24:12;20.00;99.90
23683;DHT22;24897;53.514;10.482;2022-08-19T01:26:57;20.40;99.90
23683;DHT22;24897;53.514;10.482;2022-08-19T01:29:43;19.20;99.90
23683;DHT22;24897;53.514;10.482;2022-08-19T01:32:28;20.20;99.90
23683;DHT22;24897;53.514;10.482;2022-08-19T01:35:15;18.70;99.90
23683;DHT22;24897;53.514;10.482;2022-08-19T01:38:04;20.00;99.90
23683;DHT22;24897;53.514;10.482;2022-08-19T01:40:52;19.90;99.90
23683;DHT22;24897;53.514;10.482;2022-08-19T01:43:37;19.20;99.90
23683;DHT22;24897;53.514;10.482;2022-08-19T01:46:21;18.90;99.90
23683;DHT22;24897;53.514;10.482;2022-08-19T01:49:07;19.30;99.90
23683;DHT22;24897;53.514;10.482;2022-08-19T01:51:52;19.50;99.90
23683;DHT22;24897;53.514;10.482;2022-08-19T01:57:22;19.10;99.90
23683;DHT22;24897;53.514;10.482;2022-08-19T02:00:10;20.30;99.90
23683;DHT22;24897;53.514;10.482;2022-08-19T02:02:55;19.80;99.90
23683;DHT22;24897;53.514;10.482;2022-08-19T02:05:41;19.90;99.90
23683;DHT22;24897;53.514;10.482;2022-08-19T02:08:29;18.30;99.90
23683;DHT22;24897;53.514;10.482;2022-08-19T02:11:30;19.20;99.90
23683;DHT22;24897;53.514;10.482;2022-08-19T02:14:15;19.90;99.90
23683;DHT22;24897;53.514;10.482;2022-08-19T02:16:59;19.60;99.90
23683;DHT22;24897;53.514;10.482;2022-08-19T02:19:44;19.80;99.90
23683;DHT22;24897;53.514;10.482;2022-08-19T02:22:28;19.60;99.90
23683;DHT22;24897;53.514;10.482;2022-08-19T02:25:14;19.20;99.90
23683;DHT22;24897;53.514;10.482;2022-08-19T02:27:58;20.60;99.90
23683;DHT22;24897;53.514;10.482;2022-08-19T02:30:42;19.40;99.90
23683;DHT22;24897;53.514;10.482;2022-08-19T02:33:27;19.60;99.90
23683;DHT22;24897;53.514;10.482;2022-08-19T02:36:12;20.10;99.90
23683;DHT22;24897;53.514;10.482;2022-08-19T02:38:56;19.70;99.90
23683;DHT22;24897;53.514;10.482;2022-08-19T02:41:40;19.60;99.90
23683;DHT22;24897;53.514;10.482;2022-08-19T02:44:25;19.70;99.90
23683;DHT22;24897;53.514;10.482;2022-08-19T02:47:09;19.90;99.90
23683;DHT22;24897;53.514;10.482;2022-08-19T02:49:54;19.30;99.90
23683;DHT22;24897;53.514;10.482;2022-08-19T02:52:38;19.20;99.90
23683;DHT22;24897;53.514;10.482;2022-08-19T02:55:22;19.30;99.90
23683;DHT22;24897;53.514;10.482;2022-08-19T02:58:06;19.50;99.90
23683;DHT22;24897;53.514;10.482;2022-08-19T03:00:54;19.50;99.90
23683;DHT22;24897;53.514;10.482;2022-08-19T03:03:39;19.10;99.90
23683;DHT22;24897;53.514;10.482;2022-08-19T03:06:23;20.10;99.90
23683;DHT22;24897;53.514;10.482;2022-08-19T03:09:08;20.20;99.90
23683;DHT22;24897;53.514;10.482;2022-08-19T03:11:53;20.10;99.90
23683;DHT22;24897;53.514;10.482;2022-08-19T03:14:37;19.80;99.90
23683;DHT22;24897;53.514;10.482;2022-08-19T03:17:21;19.90;99.90
23683;DHT22;24897;53.514;10.482;2022-08-19T03:20:06;20.00;99.90
23683;DHT22;24897;53.514;10.482;2022-08-19T03:22:50;20.20;99.90
23683;DHT22;24897;53.514;10.482;2022-08-19T03:25:40;19.60;99.90
23683;DHT22;24897;53.514;10.482;2022-08-19T03:28:26;19.80;99.90
23683;DHT22;24897;53.514;10.482;2022-08-19T03:31:13;19.60;99.90
23683;DHT22;24897;53.514;10.482;2022-08-19T03:33:58;19.40;99.90
23683;DHT22;24897;53.514;10.482;2022-08-19T03:36:42;19.70;99.90
23683;DHT22;24897;53.514;10.482;2022-08-19T03:39:27;19.70;99.90
23683;DHT22;24897;53.514;10.482;2022-08-19T03:42:11;19.60;99.90
23683;DHT22;24897;53.514;10.482;2022-08-19T03:44:55;19.70;99.90
23683;DHT22;24897;53.514;10.482;2022-08-19T03:47:39;19.70;99.90
23683;DHT22;24897;53.514;10.482;2022-08-19T03:50:23;19.70;99.90
23683;DHT22;24897;53.514;10.482;2022-08-19T03:53:08;19.70;99.90
23683;DHT22;24897;53.514;10.482;2022-08-19T03:55:53;19.80;99.90
23683;DHT22;24897;53.514;10.482;2022-08-19T03:58:37;19.80;99.90
23683;DHT22;24897;53.514;10.482;2022-08-19T04:01:23;19.90;99.90
23683;DHT22;24897;53.514;10.482;2022-08-19T04:04:08;19.90;99.90
23683;DHT22;24897;53.514;10.482;2022-08-19T04:06:53;20.20;99.90
23683;DHT22;24897;53.514;10.482;2022-08-19T04:09:37;19.90;99.90
23683;DHT22;24897;53.514;10.482;2022-08-19T04:12:21;19.90;99.90
23683;DHT22;24897;53.514;10.482;2022-08-19T04:15:06;19.60;99.90
23683;DHT22;24897;53.514;10.482;2022-08-19T04:17:53;19.90;99.90
23683;DHT22;24897;53.514;10.482;2022-08-19T04:20:43;19.60;99.90
23683;DHT22;24897;53.514;10.482;2022-08-19T04:23:28;19.80;99.90
23683;DHT22;24897;53.514;10.482;2022-08-19T04:26:13;19.90;99.90
23683;DHT22;24897;53.514;10.482;2022-08-19T04:29:05;19.70;99.90
23683;DHT22;24897;53.514;10.482;2022-08-19T04:31:50;19.40;99.90
23683;DHT22;24897;53.514;10.482;2022-08-19T04:37:18;20.20;99.90
23683;DHT22;24897;53.514;10.482;2022-08-19T04:40:05;19.80;99.90
23683;DHT22;24897;53.514;10.482;2022-08-19T04:43:08;20.10;99.90
23683;DHT22;24897;53.514;10.482;2022-08-19T04:51:28;20.60;99.90
23683;DHT22;24897;53.514;10.482;2022-08-19T04:54:16;20.20;99.90
23683;DHT22;24897;53.514;10.482;2022-08-19T04:57:01;19.90;99.90
23683;DHT22;24897;53.514;10.482;2022-08-19T04:59:45;20.20;99.90
23683;DHT22;24897;53.514;10.482;2022-08-19T05:02:29;20.20;99.90
23683;DHT22;24897;53.514;10.482;2022-08-19T05:05:13;19.60;99.90
23683;DHT22;24897;53.514;10.482;2022-08-19T05:07:58;19.40;99.90
23683;DHT22;24897;53.514;10.482;2022-08-19T05:10:42;19.50;99.90
23683;DHT22;24897;53.514;10.482;2022-08-19T05:13:27;19.60;99.90
23683;DHT22;24897;53.514;10.482;2022-08-19T05:16:13;19.60;99.90
23683;DHT22;24897;53.514;10.482;2022-08-19T05:18:57;19.80;99.90
23683;DHT22;24897;53.514;10.482;2022-08-19T05:22:00;19.60;99.90
23683;DHT22;24897;53.514;10.482;2022-08-19T05:25:09;20.10;99.90
23683;DHT22;24897;53.514;10.482;2022-08-19T05:27:55;19.60;99.90
23683;DHT22;24897;53.514;10.482;2022-08-19T05:30:39;19.70;99.90
23683;DHT22;24897;53.514;10.482;2022-08-19T05:33:24;19.90;99.90
23683;DHT22;24897;53.514;10.482;2022-08-19T05:36:08;19.70;99.90
23683;DHT22;24897;53.514;10.482;2022-08-19T05:38:53;19.60;99.90
23683;DHT22;24897;53.514;10.482;2022-08-19T05:41:45;19.20;99.90
23683;DHT22;24897;53.514;10.482;2022-08-19T05:44:32;22.50;99.90
23683;DHT22;24897;53.514;10.482;2022-08-19T05:47:18;20.20;99.90
23683;DHT22;24897;53.514;10.482;2022-08-19T05:50:04;19.60;99.90
23683;DHT22;24897;53.514;10.482;2022-08-19T05:52:48;20.00;99.90
23683;DHT22;24897;53.514;10.482;2022-08-19T05:55:32;19.80;99.90
23683;DHT22;24897;53.514;10.482;2022-08-19T05:58:17;20.20;99.90
23683;DHT22;24897;53.514;10.482;2022-08-19T06:01:01;19.00;99.90
23683;DHT22;24897;53.514;10.482;2022-08-19T06:03:48;20.20;99.90
23683;DHT22;24897;53.514;10.482;2022-08-19T06:06:33;19.60;99.90
23683;DHT22;24897;53.514;10.482;2022-08-19T06:12:03;19.60;99.90
23683;DHT22;24897;53.514;10.482;2022-08-19T06:17:34;19.80;99.90
23683;DHT22;24897;53.514;10.482;2022-08-19T06:20:19;19.90;99.90
23683;DHT22;24897;53.514;10.482;2022-08-19T06:25:52;19.70;99.90
23683;DHT22;24897;53.514;10.482;2022-08-19T06:31:28;19.90;99.90
23683;DHT22;24897;53.514;10.482;2022-08-19T06:34:12;19.60;99.90
23683;DHT22;24897;53.514;10.482;2022-08-19T06:36:59;19.70;99.90
23683;DHT22;24897;53.514;10.482;2022-08-19T06:39:47;19.80;99.90
23683;DHT22;24897;53.514;10.482;2022-08-19T06:45:17;20.30;99.90
23683;DHT22;24897;53.514;10.482;2022-08-19T06:48:02;19.90;99.90
23683;DHT22;24897;53.514;10.482;2022-08-19T06:53:33;19.50;99.90
23683;DHT22;24897;53.514;10.482;2022-08-19T06:56:20;19.80;99.90
23683;DHT22;24897;53.514;10.482;2022-08-19T06:59:08;19.80;99.90
23683;DHT22;24897;53.514;10.482;2022-08-19T07:01:55;19.80;99.90
23683;DHT22;24897;53.514;10.482;2022-08-19T07:04:39;19.90;99.90
23683;DHT22;24897;53.514;10.482;2022-08-19T07:10:09;19.60;99.90
23683;DHT22;24897;53.514;10.482;2022-08-19T07:12:53;20.30;99.90
23683;DHT22;24897;53.514;10.482;2022-08-19T07:15:38;20.40;99.90
23683;DHT22;24897;53.514;10.482;2022-08-19T07:18:22;19.80;99.90
23683;DHT22;24897;53.514;10.482;2022-08-19T07:21:12;19.90;99.90
23683;DHT22;24897;53.514;10.482;2022-08-19T07:23:59;19.20;99.90
23683;DHT22;24897;53.514;10.482;2022-08-19T07:26:44;19.60;99.90
23683;DHT22;24897;53.514;10.482;2022-08-19T07:29:31;20.60;99.90
23683;DHT22;24897;53.514;10.482;2022-08-19T07:32:16;20.80;99.90
23683;DHT22;24897;53.514;10.482;2022-08-19T07:35:00;20.60;99.90
23683;DHT22;24897;53.514;10.482;2022-08-19T07:37:47;20.00;99.90
23683;DHT22;24897;53.514;10.482;2022-08-19T07:40:31;20.20;99.90
23683;DHT22;24897;53.514;10.482;2022-08-19T07:43:16;20.30;99.90
23683;DHT22;24897;53.514;10.482;2022-08-19T07:46:07;19.90;99.90
23683;DHT22;24897;53.514;10.482;2022-08-19T07:48:51;20.60;99.90
23683;DHT22;24897;53.514;10.482;2022-08-19T07:51:35;19.80;99.90
23683;DHT22;24897;53.514;10.482;2022-08-19T07:54:21;20.60;99.90
23683;DHT22;24897;53.514;10.482;2022-08-19T07:57:07;20.00;99.90
23683;DHT22;24897;53.514;10.482;2022-08-19T07:59:51;20.70;99.90
23683;DHT22;24897;53.514;10.482;2022-08-19T08:02:35;19.70;99.90
23683;DHT22;24897;53.514;10.482;2022-08-19T08:05:19;20.80;99.90
23683;DHT22;24897;53.514;10.482;2022-08-19T08:08:22;20.30;99.90
23683;DHT22;24897;53.514;10.482;2022-08-19T08:11:25;20.40;99.90
23683;DHT22;24897;53.514;10.482;2022-08-19T08:14:09;19.90;99.90
23683;DHT22;24897;53.514;10.482;2022-08-19T08:16:54;20.00;99.90
23683;DHT22;24897;53.514;10.482;2022-08-19T08:19:39;20.40;99.90
23683;DHT22;24897;53.514;10.482;2022-08-19T08:22:26;20.60;99.90
23683;DHT22;24897;53.514;10.482;2022-08-19T08:25:29;19.80;99.90
23683;DHT22;24897;53.514;10.482;2022-08-19T08:28:15;20.70;99.90
23683;DHT22;24897;53.514;10.482;2022-08-19T08:31:00;20.30;99.90
23683;DHT22;24897;53.514;10.482;2022-08-19T08:33:44;20.40;99.90
23683;DHT22;24897;53.514;10.482;2022-08-19T08:36:29;20.00;99.90
23683;DHT22;24897;53.514;10.482;2022-08-19T08:39:17;20.80;99.90
23683;DHT22;24897;53.514;10.482;2022-08-19T08:42:07;20.40;99.90
23683;DHT22;24897;53.514;10.482;2022-08-19T08:45:33;20.80;99.90
23683;DHT22;24897;53.514;10.482;2022-08-19T08:48:04;20.40;99.90
23683;DHT22;24897;53.514;10.482;2022-08-19T08:50:54;20.90;99.90
23683;DHT22;24897;53.514;10.482;2022-08-19T08:53:44;20.60;99.90
23683;DHT22;24897;53.514;10.482;2022-08-19T08:56:31;20.70;99.90
23683;DHT22;24897;53.514;10.482;2022-08-19T08:59:26;20.50;99.90
23683;DHT22;24897;53.514;10.482;2022-08-19T09:02:12;19.90;99.90
23683;DHT22;24897;53.514;10.482;2022-08-19T09:04:56;20.50;99.90
23683;DHT22;24897;53.514;10.482;2022-08-19T09:08:07;20.50;99.90
23683;DHT22;24897;53.514;10.482;2022-08-19T09:10:54;20.70;99.90
23683;DHT22;24897;53.514;10.482;2022-08-19T09:13:56;20.00;99.90
23683;DHT22;24897;53.514;10.482;2022-08-19T09:16:44;20.00;99.90
23683;DHT22;24897;53.514;10.482;2022-08-19T09:19:29;20.60;99.90
23683;DHT22;24897;53.514;10.482;2022-08-19T09:22:14;20.20;99.90
23683;DHT22;24897;53.514;10.482;2022-08-19T09:24:58;19.80;99.90
23683;DHT22;24897;53.514;10.482;2022-08-19T09:27:43;20.80;99.90
23683;DHT22;24897;53.514;10.482;2022-08-19T09:30:30;20.00;99.90
23683;DHT22;24897;53.514;10.482;2022-08-19T09:33:15;20.30;99.90
23683;DHT22;24897;53.514;10.482;2022-08-19T09:36:05;20.60;99.90
23683;DHT22;24897;53.514;10.482;2022-08-19T09:38:51;20.20;99.90
23683;DHT22;24897;53.514;10.482;2022-08-19T09:41:36;20.60;99.90
23683;DHT22;24897;53.514;10.482;2022-08-19T09:44:20;20.20;99.90
23683;DHT22;24897;53.514;10.482;2022-08-19T09:47:04;20.40;99.90
23683;DHT22;24897;53.514;10.482;2022-08-19T09:52:34;20.70;99.90
23683;DHT22;24897;53.514;10.482;2022-08-19T09:55:20;20.20;99.90
23683;DHT22;24897;53.514;10.482;2022-08-19T09:58:04;20.50;99.90
23683;DHT22;24897;53.514;10.482;2022-08-19T10:00:48;20.50;99.90
23683;DHT22;24897;53.514;10.482;2022-08-19T10:03:34;20.50;99.90
23683;DHT22;24897;53.514;10.482;2022-08-19T10:06:19;20.50;99.90
23683;DHT22;24897;53.514;10.482;2022-08-19T10:09:05;21.90;99.90
23683;DHT22;24897;53.514;10.482;2022-08-19T10:14:34;20.70;99.90
23683;DHT22;24897;53.514;10.482;2022-08-19T10:17:19;20.70;99.90
23683;DHT22;24897;53.514;10.482;2022-08-19T10:20:04;21.30;99.90
23683;DHT22;24897;53.514;10.482;2022-08-19T10:22:48;20.70;99.90
23683;DHT22;24897;53.514;10.482;2022-08-19T10:25:33;20.00;99.90
23683;DHT22;24897;53.514;10.482;2022-08-19T10:28:17;20.70;99.90
23683;DHT22;24897;53.514;10.482;2022-08-19T10:31:13;20.90;99.90
23683;DHT22;24897;53.514;10.482;2022-08-19T10:34:02;20.90;99.90
23683;DHT22;24897;53.514;10.482;2022-08-19T10:36:46;19.90;99.90
23683;DHT22;24897;53.514;10.482;2022-08-19T10:39:32;20.90;99.90
23683;DHT22;24897;53.514;10.482;2022-08-19T10:42:16;20.50;99.90
23683;DHT22;24897;53.514;10.482;2022-08-19T10:45:04;20.30;99.90
23683;DHT22;24897;53.514;10.482;2022-08-19T10:47:49;20.30;99.90
23683;DHT22;24897;53.514;10.482;2022-08-19T10:50:33;20.40;99.90
23683;DHT22;24897;53.514;10.482;2022-08-19T10:53:50;19.70;99.90
23683;DHT22;24897;53.514;10.482;2022-08-19T10:56:35;21.70;99.90
23683;DHT22;24897;53.514;10.482;2022-08-19T10:59:36;21.40;99.90
23683;DHT22;24897;53.514;10.482;2022-08-19T11:02:21;20.50;99.90
23683;DHT22;24897;53.514;10.482;2022-08-19T11:05:05;20.90;99.90
23683;DHT22;24897;53.514;10.482;2022-08-19T11:10:35;21.00;99.90
23683;DHT22;24897;53.514;10.482;2022-08-19T11:16:15;21.10;99.90
23683;DHT22;24897;53.514;10.482;2022-08-19T11:18:59;20.90;99.90
23683;DHT22;24897;53.514;10.482;2022-08-19T11:21:46;20.90;99.90
23683;DHT22;24897;53.514;10.482;2022-08-19T11:24:31;21.30;99.90
23683;DHT22;24897;53.514;10.482;2022-08-19T11:27:15;20.90;99.90
23683;DHT22;24897;53.514;10.482;2022-08-19T11:29:59;21.20;99.90
23683;DHT22;24897;53.514;10.482;2022-08-19T11:32:44;21.40;99.90
23683;DHT22;24897;53.514;10.482;2022-08-19T11:35:29;21.90;99.90
23683;DHT22;24897;53.514;10.482;2022-08-19T11:38:13;21.80;99.90
23683;DHT22;24897;53.514;10.482;2022-08-19T11:41:00;21.70;99.90
23683;DHT22;24897;53.514;10.482;2022-08-19T11:43:45;21.60;99.90
23683;DHT22;24897;53.514;10.482;2022-08-19T11:46:29;21.50;99.90
23683;DHT22;24897;53.514;10.482;2022-08-19T11:49:15;22.40;99.90
23683;DHT22;24897;53.514;10.482;2022-08-19T11:51:59;22.50;99.90
23683;DHT22;24897;53.514;10.482;2022-08-19T11:54:43;21.70;99.90
23683;DHT22;24897;53.514;10.482;2022-08-19T11:57:27;21.90;99.90
23683;DHT22;24897;53.514;10.482;2022-08-19T12:00:12;21.80;99.90
23683;DHT22;24897;53.514;10.482;2022-08-19T12:02:57;21.90;99.90
23683;DHT22;24897;53.514;10.482;2022-08-19T12:05:41;22.00;99.90
23683;DHT22;24897;53.514;10.482;2022-08-19T12:08:25;22.10;99.90
23683;DHT22;24897;53.514;10.482;2022-08-19T12:11:11;22.20;99.90
23683;DHT22;24897;53.514;10.482;2022-08-19T12:13:56;22.10;99.90
23683;DHT22;24897;53.514;10.482;2022-08-19T12:16:44;22.50;99.90
23683;DHT22;24897;53.514;10.482;2022-08-19T12:19:29;22.60;99.90
23683;DHT22;24897;53.514;10.482;2022-08-19T12:22:13;23.20;99.90
23683;DHT22;24897;53.514;10.482;2022-08-19T12:24:58;22.50;99.90
23683;DHT22;24897;53.514;10.482;2022-08-19T12:27:42;22.60;99.90
23683;DHT22;24897;53.514;10.482;2022-08-19T12:30:26;22.60;99.90
23683;DHT22;24897;53.514;10.482;2022-08-19T12:33:11;22.60;99.90
23683;DHT22;24897;53.514;10.482;2022-08-19T12:36:02;22.60;99.90
23683;DHT22;24897;53.514;10.482;2022-08-19T12:38:47;22.60;99.90
23683;DHT22;24897;53.514;10.482;2022-08-19T12:41:31;22.60;99.90
23683;DHT22;24897;53.514;10.482;2022-08-19T12:44:16;22.50;99.90
23683;DHT22;24897;53.514;10.482;2022-08-19T12:47:01;22.50;99.90
23683;DHT22;24897;53.514;10.482;2022-08-19T12:49:48;22.40;99.90
23683;DHT22;24897;53.514;10.482;2022-08-19T12:52:33;22.30;99.90
23683;DHT22;24897;53.514;10.482;2022-08-19T12:55:18;22.30;99.90
23683;DHT22;24897;53.514;10.482;2022-08-19T12:58:03;22.20;99.90
23683;DHT22;24897;53.514;10.482;2022-08-19T13:00:47;22.10;99.90
23683;DHT22;24897;53.514;10.482;2022-08-19T13:03:32;22.00;99.90
23683;DHT22;24897;53.514;10.482;2022-08-19T13:06:16;22.00;99.90
23683;DHT22;24897;53.514;10.482;2022-08-19T13:09:03;22.20;99.90
23683;DHT22;24897;53.514;10.482;2022-08-19T13:11:48;22.20;99.90
23683;DHT22;24897;53.514;10.482;2022-08-19T13:14:33;22.40;99.90
23683;DHT22;24897;53.514;10.482;2022-08-19T13:17:17;22.50;99.90
23683;DHT22;24897;53.514;10.482;2022-08-19T13:20:02;22.50;99.90
23683;DHT22;24897;53.514;10.482;2022-08-19T13:22:47;22.50;99.90
23683;DHT22;24897;53.514;10.482;2022-08-19T13:25:32;22.50;99.90
23683;DHT22;24897;53.514;10.482;2022-08-19T13:28:16;22.20;99.90
23683;DHT22;24897;53.514;10.482;2022-08-19T13:31:00;22.30;99.90
23683;DHT22;24897;53.514;10.482;2022-08-19T13:34:04;22.40;99.90
23683;DHT22;24897;53.514;10.482;2022-08-19T13:36:49;22.40;99.90
23683;DHT22;24897;53.514;10.482;2022-08-19T13:39:34;22.50;99.90
23683;DHT22;24897;53.514;10.482;2022-08-19T13:42:19;22.50;99.90
23683;DHT22;24897;53.514;10.482;2022-08-19T13:45:03;22.80;99.90
23683;DHT22;24897;53.514;10.482;2022-08-19T13:47:52;22.80;99.90
23683;DHT22;24897;53.514;10.482;2022-08-19T13:50:40;23.10;99.90
23683;DHT22;24897;53.514;10.482;2022-08-19T13:53:26;23.70;99.90
23683;DHT22;24897;53.514;10.482;2022-08-19T13:56:14;24.40;99.90
23683;DHT22;24897;53.514;10.482;2022-08-19T13:58:58;24.90;99.90
23683;DHT22;24897;53.514;10.482;2022-08-19T14:01:42;25.30;99.90
23683;DHT22;24897;53.514;10.482;2022-08-19T14:04:26;25.40;99.90
23683;DHT22;24897;53.514;10.482;2022-08-19T14:07:11;25.90;99.90
23683;DHT22;24897;53.514;10.482;2022-08-19T14:09:55;25.80;99.90
23683;DHT22;24897;53.514;10.482;2022-08-19T14:12:39;25.80;99.90
23683;DHT22;24897;53.514;10.482;2022-08-19T14:15:24;26.00;99.90
23683;DHT22;24897;53.514;10.482;2022-08-19T14:18:08;26.00;99.90
23683;DHT22;24897;53.514;10.482;2022-08-19T14:20:53;25.90;99.90
23683;DHT22;24897;53.514;10.482;2022-08-19T14:23:37;25.70;99.90
23683;DHT22;24897;53.514;10.482;2022-08-19T14:26:22;25.00;99.90
23683;DHT22;24897;53.514;10.482;2022-08-19T14:29:06;25.50;99.90
23683;DHT22;24897;53.514;10.482;2022-08-19T14:31:50;25.30;99.90
23683;DHT22;24897;53.514;10.482;2022-08-19T14:34:34;25.40;99.90
23683;DHT22;24897;53.514;10.482;2022-08-19T14:37:21;25.30;99.90
23683;DHT22;24897;53.514;10.482;2022-08-19T14:40:06;25.40;99.90
23683;DHT22;24897;53.514;10.482;2022-08-19T14:42:52;25.40;99.90
23683;DHT22;24897;53.514;10.482;2022-08-19T14:45:39;25.90;99.90
23683;DHT22;24897;53.514;10.482;2022-08-19T14:48:24;25.60;99.90
23683;DHT22;24897;53.514;10.482;2022-08-19T14:51:09;24.80;99.90
23683;DHT22;24897;53.514;10.482;2022-08-19T14:53:53;25.40;99.90
23683;DHT22;24897;53.514;10.482;2022-08-19T14:56:40;24.70;99.90
23683;DHT22;24897;53.514;10.482;2022-08-19T14:59:24;24.60;99.90
23683;DHT22;24897;53.514;10.482;2022-08-19T15:02:09;24.20;99.90
23683;DHT22;24897;53.514;10.482;2022-08-19T15:04:53;23.50;99.90
23683;DHT22;24897;53.514;10.482;2022-08-19T15:07:40;25.00;99.90
23683;DHT22;24897;53.514;10.482;2022-08-19T15:10:24;23.70;99.90
23683;DHT22;24897;53.514;10.482;2022-08-19T15:13:09;23.60;99.90
23683;DHT22;24897;53.514;10.482;2022-08-19T15:15:53;24.10;99.90
23683;DHT22;24897;53.514;10.482;2022-08-19T15:18:38;24.00;99.90
23683;DHT22;24897;53.514;10.482;2022-08-19T15:21:23;23.50;99.90
23683;DHT22;24897;53.514;10.482;2022-08-19T15:24:07;23.90;99.90
23683;DHT22;24897;53.514;10.482;2022-08-19T15:26:53;23.70;99.90
23683;DHT22;24897;53.514;10.482;2022-08-19T15:29:39;23.70;99.90
23683;DHT22;24897;53.514;10.482;2022-08-19T15:35:10;24.20;99.90
23683;DHT22;24897;53.514;10.482;2022-08-19T15:37:54;24.10;99.90
23683;DHT22;24897;53.514;10.482;2022-08-19T15:40:40;24.10;99.90
23683;DHT22;24897;53.514;10.482;2022-08-19T15:43:25;25.20;99.90
23683;DHT22;24897;53.514;10.482;2022-08-19T15:46:09;23.90;99.90
23683;DHT22;24897;53.514;10.482;2022-08-19T15:48:54;24.60;99.90
23683;DHT22;24897;53.514;10.482;2022-08-19T15:51:40;24.10;99.90
23683;DHT22;24897;53.514;10.482;2022-08-19T15:54:26;24.50;99.90
23683;DHT22;24897;53.514;10.482;2022-08-19T15:57:10;23.80;99.90
23683;DHT22;24897;53.514;10.482;2022-08-19T16:00:10;24.70;99.90
23683;DHT22;24897;53.514;10.482;2022-08-19T16:03:13;24.50;99.90
23683;DHT22;24897;53.514;10.482;2022-08-19T16:06:17;24.10;99.90
23683;DHT22;24897;53.514;10.482;2022-08-19T16:09:10;24.50;99.90
23683;DHT22;24897;53.514;10.482;2022-08-19T16:12:00;25.70;99.90
23683;DHT22;24897;53.514;10.482;2022-08-19T16:14:46;24.80;99.90
23683;DHT22;24897;53.514;10.482;2022-08-19T16:17:32;24.90;99.90
23683;DHT22;24897;53.514;10.482;2022-08-19T16:23:04;24.20;99.90
23683;DHT22;24897;53.514;10.482;2022-08-19T16:25:49;24.70;99.90
23683;DHT22;24897;53.514;10.482;2022-08-19T16:28:33;24.50;99.90
23683;DHT22;24897;53.514;10.482;2022-08-19T16:31:17;24.70;99.90
23683;DHT22;24897;53.514;10.482;2022-08-19T16:34:01;24.90;99.90
23683;DHT22;24897;53.514;10.482;2022-08-19T16:36:46;24.60;99.90
23683;DHT22;24897;53.514;10.482;2022-08-19T16:39:30;23.80;99.90
23683;DHT22;24897;53.514;10.482;2022-08-19T16:42:15;24.30;99.90
23683;DHT22;24897;53.514;10.482;2022-08-19T16:44:59;23.60;99.90
23683;DHT22;24897;53.514;10.482;2022-08-19T16:47:43;23.40;99.90
23683;DHT22;24897;53.514;10.482;2022-08-19T16:50:27;24.10;99.90
23683;DHT22;24897;53.514;10.482;2022-08-19T16:53:16;23.10;99.90
23683;DHT22;24897;53.514;10.482;2022-08-19T16:58:45;23.30;99.90
23683;DHT22;24897;53.514;10.482;2022-08-19T17:01:29;23.10;99.90
23683;DHT22;24897;53.514;10.482;2022-08-19T17:04:14;23.60;99.90
23683;DHT22;24897;53.514;10.482;2022-08-19T17:06:58;24.10;99.90
23683;DHT22;24897;53.514;10.482;2022-08-19T17:09:42;23.70;99.90
23683;DHT22;24897;53.514;10.482;2022-08-19T17:12:26;23.00;99.90
23683;DHT22;24897;53.514;10.482;2022-08-19T17:15:11;23.80;99.90
23683;DHT22;24897;53.514;10.482;2022-08-19T17:18:01;23.50;99.90
23683;DHT22;24897;53.514;10.482;2022-08-19T17:20:46;23.80;99.90
23683;DHT22;24897;53.514;10.482;2022-08-19T17:23:30;23.70;99.90
23683;DHT22;24897;53.514;10.482;2022-08-19T17:26:16;24.00;99.90
23683;DHT22;24897;53.514;10.482;2022-08-19T17:34:29;22.90;99.90
23683;DHT22;24897;53.514;10.482;2022-08-19T17:37:14;22.90;99.90
23683;DHT22;24897;53.514;10.482;2022-08-19T17:40:04;23.10;99.90
23683;DHT22;24897;53.514;10.482;2022-08-19T17:42:49;22.30;99.90
23683;DHT22;24897;53.514;10.482;2022-08-19T17:45:35;22.80;99.90
23683;DHT22;24897;53.514;10.482;2022-08-19T17:48:20;23.60;99.90
23683;DHT22;24897;53.514;10.482;2022-08-19T17:54:18;21.80;99.90
23683;DHT22;24897;53.514;10.482;2022-08-19T17:57:03;23.90;99.90
23683;DHT22;24897;53.514;10.482;2022-08-19T17:59:47;22.60;99.90
23683;DHT22;24897;53.514;10.482;2022-08-19T18:02:32;23.20;99.90
23683;DHT22;24897;53.514;10.482;2022-08-19T18:05:18;22.90;99.90
23683;DHT22;24897;53.514;10.482;2022-08-19T18:08:02;23.30;99.90
23683;DHT22;24897;53.514;10.482;2022-08-19T18:10:47;21.90;99.90
23683;DHT22;24897;53.514;10.482;2022-08-19T18:13:31;22.90;99.90
23683;DHT22;24897;53.514;10.482;2022-08-19T18:16:15;22.40;99.90